sensor_id;sensor_type;location;lat;lon;timestamp;P1;durP1;ratioP1;P2;durP2;ratioP2
1306;SDS011;646;48.696;9.114;2022-08-21T00:01:21;58.07;;;53.37;;
1306;SDS011;646;48.696;9.114;2022-08-21T00:03:49;78.43;;;71.47;;
1306;SDS011;646;48.696;9.114;2022-08-21T00:06:15;86.57;;;79.80;;
1306;SDS011;646;48.696;9.114;2022-08-21T00:08:41;80.00;;;72.90;;
1306;SDS011;646;48.696;9.114;2022-08-21T00:11:07;61.43;;;56.00;;
1306;SDS011;646;48.696;9.114;2022-08-21T00:13:33;46.20;;;42.13;;
1306;SDS011;646;48.696;9.114;2022-08-21T00:15:59;39.47;;;36.07;;
1306;SDS011;646;48.696;9.114;2022-08-21T00:18:25;35.40;;;32.07;;
1306;SDS011;646;48.696;9.114;2022-08-21T00:20:51;29.03;;;26.53;;
1306;SDS011;646;48.696;9.114;2022-08-21T00:23:17;23.90;;;22.00;;
1306;SDS011;646;48.696;9.114;2022-08-21T00:25:42;19.87;;;18.00;;
1306;SDS011;646;48.696;9.114;2022-08-21T00:28:09;18.10;;;16.47;;
1306;SDS011;646;48.696;9.114;2022-08-21T00:30:35;14.63;;;13.40;;
1306;SDS011;646;48.696;9.114;2022-08-21T00:33:01;11.97;;;10.97;;
1306;SDS011;646;48.696;9.114;2022-08-21T00:35:31;11.70;;;10.70;;
1306;SDS011;646;48.696;9.114;2022-08-21T00:38:02;8.63;;;7.83;;
1306;SDS011;646;48.696;9.114;2022-08-21T00:40:33;9.53;;;8.70;;
1306;SDS011;646;48.696;9.114;2022-08-21T00:43:06;10.13;;;9.23;;
1306;SDS011;646;48.696;9.114;2022-08-21T00:45:34;9.50;;;8.63;;
1306;SDS011;646;48.696;9.114;2022-08-21T00:48:00;9.70;;;8.90;;
1306;SDS011;646;48.696;9.114;2022-08-21T00:50:27;8.60;;;7.80;;
1306;SDS011;646;48.696;9.114;2022-08-21T00:52:57;9.40;;;6.90;;
1306;SDS011;646;48.696;9.114;2022-08-21T00:55:25;6.03;;;5.53;;
1306;SDS011;646;48.696;9.114;2022-08-21T00:57:52;5.13;;;4.73;;
1306;SDS011;646;48.696;9.114;2022-08-21T01:00:23;5.07;;;4.40;;
1306;SDS011;646;48.696;9.114;2022-08-21T01:02:53;5.30;;;4.80;;
1306;SDS011;646;48.696;9.114;2022-08-21T01:05:19;4.93;;;4.40;;
1306;SDS011;646;48.696;9.114;2022-08-21T01:07:45;5.83;;;4.73;;
1306;SDS011;646;48.696;9.114;2022-08-21T01:10:10;4.90;;;4.40;;
1306;SDS011;646;48.696;9.114;2022-08-21T01:12:37;5.00;;;4.60;;
1306;SDS011;646;48.696;9.114;2022-08-21T01:15:05;5.20;;;4.80;;
1306;SDS011;646;48.696;9.114;2022-08-21T01:17:31;4.40;;;4.10;;
1306;SDS011;646;48.696;9.114;2022-08-21T01:19:58;4.20;;;3.90;;
1306;SDS011;646;48.696;9.114;2022-08-21T01:22:25;5.10;;;4.60;;
1306;SDS011;646;48.696;9.114;2022-08-21T01:24:51;4.03;;;3.63;;
1306;SDS011;646;48.696;9.114;2022-08-21T01:27:16;4.17;;;3.87;;
1306;SDS011;646;48.696;9.114;2022-08-21T01:29:48;3.57;;;3.27;;
1306;SDS011;646;48.696;9.114;2022-08-21T01:32:19;3.60;;;3.40;;
1306;SDS011;646;48.696;9.114;2022-08-21T01:34:45;3.50;;;3.20;;
1306;SDS011;646;48.696;9.114;2022-08-21T01:37:13;4.20;;;3.10;;
1306;SDS011;646;48.696;9.114;2022-08-21T01:39:42;4.00;;;3.70;;
1306;SDS011;646;48.696;9.114;2022-08-21T01:42:08;3.67;;;3.37;;
1306;SDS011;646;48.696;9.114;2022-08-21T01:44:34;3.83;;;3.53;;
1306;SDS011;646;48.696;9.114;2022-08-21T01:47:01;4.57;;;3.93;;
1306;SDS011;646;48.696;9.114;2022-08-21T01:49:29;5.00;;;3.10;;
1306;SDS011;646;48.696;9.114;2022-08-21T01:51:54;4.13;;;3.77;;
1306;SDS011;646;48.696;9.114;2022-08-21T01:54:20;3.03;;;2.83;;
1306;SDS011;646;48.696;9.114;2022-08-21T01:56:46;4.97;;;4.47;;
1306;SDS011;646;48.696;9.114;2022-08-21T01:59:14;3.83;;;3.53;;
1306;SDS011;646;48.696;9.114;2022-08-21T02:01:40;3.70;;;3.07;;
1306;SDS011;646;48.696;9.114;2022-08-21T02:04:07;3.87;;;3.47;;
1306;SDS011;646;48.696;9.114;2022-08-21T02:06:34;3.30;;;3.00;;
1306;SDS011;646;48.696;9.114;2022-08-21T02:09:00;4.53;;;3.53;;
1306;SDS011;646;48.696;9.114;2022-08-21T02:11:26;3.60;;;3.30;;
1306;SDS011;646;48.696;9.114;2022-08-21T02:13:52;4.07;;;3.40;;
1306;SDS011;646;48.696;9.114;2022-08-21T02:16:17;3.50;;;3.17;;
1306;SDS011;646;48.696;9.114;2022-08-21T02:18:43;4.43;;;4.07;;
1306;SDS011;646;48.696;9.114;2022-08-21T02:21:08;4.17;;;3.23;;
1306;SDS011;646;48.696;9.114;2022-08-21T02:23:34;3.43;;;3.13;;
1306;SDS011;646;48.696;9.114;2022-08-21T02:26:01;4.73;;;3.10;;
1306;SDS011;646;48.696;9.114;2022-08-21T02:28:28;4.03;;;3.73;;
1306;SDS011;646;48.696;9.114;2022-08-21T02:30:54;5.00;;;4.00;;
1306;SDS011;646;48.696;9.114;2022-08-21T02:33:21;3.83;;;3.10;;
1306;SDS011;646;48.696;9.114;2022-08-21T02:35:47;4.82;;;4.30;;
1306;SDS011;646;48.696;9.114;2022-08-21T02:38:15;4.45;;;3.90;;
1306;SDS011;646;48.696;9.114;2022-08-21T02:40:44;3.60;;;3.30;;
1306;SDS011;646;48.696;9.114;2022-08-21T02:43:11;5.87;;;4.27;;
1306;SDS011;646;48.696;9.114;2022-08-21T02:45:37;3.50;;;3.20;;
1306;SDS011;646;48.696;9.114;2022-08-21T02:48:04;4.03;;;3.70;;
1306;SDS011;646;48.696;9.114;2022-08-21T02:50:33;3.63;;;3.33;;
1306;SDS011;646;48.696;9.114;2022-08-21T02:53:01;4.00;;;3.65;;
1306;SDS011;646;48.696;9.114;2022-08-21T02:55:28;4.03;;;3.73;;
1306;SDS011;646;48.696;9.114;2022-08-21T02:57:56;4.20;;;3.80;;
1306;SDS011;646;48.696;9.114;2022-08-21T03:00:23;4.20;;;3.47;;
1306;SDS011;646;48.696;9.114;2022-08-21T03:02:50;3.80;;;3.50;;
1306;SDS011;646;48.696;9.114;2022-08-21T03:05:16;4.13;;;3.83;;
1306;SDS011;646;48.696;9.114;2022-08-21T03:07:43;4.32;;;3.92;;
1306;SDS011;646;48.696;9.114;2022-08-21T03:10:12;4.15;;;3.75;;
1306;SDS011;646;48.696;9.114;2022-08-21T03:12:38;4.20;;;3.80;;
1306;SDS011;646;48.696;9.114;2022-08-21T03:15:04;3.50;;;3.30;;
1306;SDS011;646;48.696;9.114;2022-08-21T03:17:32;3.88;;;3.58;;
1306;SDS011;646;48.696;9.114;2022-08-21T03:19:58;5.57;;;4.18;;
1306;SDS011;646;48.696;9.114;2022-08-21T03:22:24;4.75;;;4.07;;
1306;SDS011;646;48.696;9.114;2022-08-21T03:24:51;4.45;;;4.05;;
1306;SDS011;646;48.696;9.114;2022-08-21T03:27:16;4.13;;;3.73;;
1306;SDS011;646;48.696;9.114;2022-08-21T03:29:42;4.10;;;3.80;;
1306;SDS011;646;48.696;9.114;2022-08-21T03:32:08;4.10;;;3.80;;
1306;SDS011;646;48.696;9.114;2022-08-21T03:34:34;4.28;;;3.97;;
1306;SDS011;646;48.696;9.114;2022-08-21T03:37:04;4.85;;;3.78;;
1306;SDS011;646;48.696;9.114;2022-08-21T03:39:30;4.55;;;4.15;;
1306;SDS011;646;48.696;9.114;2022-08-21T03:41:56;4.10;;;3.80;;
1306;SDS011;646;48.696;9.114;2022-08-21T03:44:22;4.27;;;3.87;;
1306;SDS011;646;48.696;9.114;2022-08-21T03:46:47;3.90;;;3.50;;
1306;SDS011;646;48.696;9.114;2022-08-21T03:49:13;3.90;;;3.60;;
1306;SDS011;646;48.696;9.114;2022-08-21T03:51:39;4.70;;;4.30;;
1306;SDS011;646;48.696;9.114;2022-08-21T03:54:04;4.10;;;3.70;;
1306;SDS011;646;48.696;9.114;2022-08-21T03:56:30;4.47;;;4.17;;
1306;SDS011;646;48.696;9.114;2022-08-21T03:58:56;3.83;;;3.50;;
1306;SDS011;646;48.696;9.114;2022-08-21T04:01:21;3.93;;;3.63;;
1306;SDS011;646;48.696;9.114;2022-08-21T04:03:47;4.23;;;3.83;;
1306;SDS011;646;48.696;9.114;2022-08-21T04:06:12;4.33;;;3.70;;
1306;SDS011;646;48.696;9.114;2022-08-21T04:08:38;4.53;;;4.13;;
1306;SDS011;646;48.696;9.114;2022-08-21T04:11:03;4.33;;;3.93;;
1306;SDS011;646;48.696;9.114;2022-08-21T04:13:30;5.40;;;4.22;;
1306;SDS011;646;48.696;9.114;2022-08-21T04:15:56;8.50;;;4.30;;
1306;SDS011;646;48.696;9.114;2022-08-21T04:18:23;4.30;;;3.88;;
1306;SDS011;646;48.696;9.114;2022-08-21T04:20:50;4.27;;;3.77;;
1306;SDS011;646;48.696;9.114;2022-08-21T04:23:18;4.50;;;3.60;;
1306;SDS011;646;48.696;9.114;2022-08-21T04:25:44;4.22;;;3.80;;
1306;SDS011;646;48.696;9.114;2022-08-21T04:28:09;4.10;;;3.80;;
1306;SDS011;646;48.696;9.114;2022-08-21T04:30:35;4.50;;;4.10;;
1306;SDS011;646;48.696;9.114;2022-08-21T04:33:00;4.60;;;4.10;;
1306;SDS011;646;48.696;9.114;2022-08-21T04:35:26;4.00;;;3.70;;
1306;SDS011;646;48.696;9.114;2022-08-21T04:37:53;4.57;;;4.13;;
1306;SDS011;646;48.696;9.114;2022-08-21T04:40:20;5.25;;;4.05;;
1306;SDS011;646;48.696;9.114;2022-08-21T04:42:47;4.57;;;4.18;;
1306;SDS011;646;48.696;9.114;2022-08-21T04:45:38;4.25;;;3.85;;
1306;SDS011;646;48.696;9.114;2022-08-21T04:48:07;4.50;;;4.20;;
1306;SDS011;646;48.696;9.114;2022-08-21T04:53:23;4.60;;;4.20;;
1306;SDS011;646;48.696;9.114;2022-08-21T04:56:00;5.20;;;4.70;;
1306;SDS011;646;48.696;9.114;2022-08-21T04:58:29;4.60;;;4.20;;
1306;SDS011;646;48.696;9.114;2022-08-21T05:00:58;4.70;;;4.30;;
1306;SDS011;646;48.696;9.114;2022-08-21T05:03:25;4.77;;;4.37;;
1306;SDS011;646;48.696;9.114;2022-08-21T05:05:52;4.70;;;4.30;;
1306;SDS011;646;48.696;9.114;2022-08-21T05:08:18;4.50;;;4.10;;
1306;SDS011;646;48.696;9.114;2022-08-21T05:10:46;4.33;;;3.97;;
1306;SDS011;646;48.696;9.114;2022-08-21T05:13:12;4.40;;;4.00;;
1306;SDS011;646;48.696;9.114;2022-08-21T05:15:39;5.07;;;4.67;;
1306;SDS011;646;48.696;9.114;2022-08-21T05:18:05;4.77;;;4.37;;
1306;SDS011;646;48.696;9.114;2022-08-21T05:20:31;4.57;;;4.20;;
1306;SDS011;646;48.696;9.114;2022-08-21T05:22:59;4.30;;;3.90;;
1306;SDS011;646;48.696;9.114;2022-08-21T05:25:25;4.17;;;3.87;;
1306;SDS011;646;48.696;9.114;2022-08-21T05:27:51;4.70;;;4.30;;
1306;SDS011;646;48.696;9.114;2022-08-21T05:30:16;4.80;;;4.40;;
1306;SDS011;646;48.696;9.114;2022-08-21T05:32:42;4.80;;;4.40;;
1306;SDS011;646;48.696;9.114;2022-08-21T05:35:07;4.83;;;4.43;;
1306;SDS011;646;48.696;9.114;2022-08-21T05:37:34;4.37;;;4.07;;
1306;SDS011;646;48.696;9.114;2022-08-21T05:40:00;5.43;;;4.93;;
1306;SDS011;646;48.696;9.114;2022-08-21T05:42:28;5.77;;;4.63;;
1306;SDS011;646;48.696;9.114;2022-08-21T05:44:54;4.43;;;4.13;;
1306;SDS011;646;48.696;9.114;2022-08-21T05:47:19;4.30;;;3.90;;
1306;SDS011;646;48.696;9.114;2022-08-21T05:49:45;4.20;;;3.90;;
1306;SDS011;646;48.696;9.114;2022-08-21T05:52:11;4.03;;;3.73;;
1306;SDS011;646;48.696;9.114;2022-08-21T05:54:37;6.20;;;3.67;;
1306;SDS011;646;48.696;9.114;2022-08-21T05:57:02;4.40;;;4.00;;
1306;SDS011;646;48.696;9.114;2022-08-21T05:59:28;4.20;;;3.80;;
1306;SDS011;646;48.696;9.114;2022-08-21T06:01:54;4.70;;;3.73;;
1306;SDS011;646;48.696;9.114;2022-08-21T06:04:19;4.03;;;3.73;;
1306;SDS011;646;48.696;9.114;2022-08-21T06:06:45;4.53;;;4.10;;
1306;SDS011;646;48.696;9.114;2022-08-21T06:09:12;5.27;;;4.77;;
1306;SDS011;646;48.696;9.114;2022-08-21T06:11:37;3.73;;;3.43;;
1306;SDS011;646;48.696;9.114;2022-08-21T06:14:03;3.83;;;3.33;;
1306;SDS011;646;48.696;9.114;2022-08-21T06:16:31;3.97;;;3.60;;
1306;SDS011;646;48.696;9.114;2022-08-21T06:18:56;4.23;;;3.93;;
1306;SDS011;646;48.696;9.114;2022-08-21T06:21:24;4.27;;;3.97;;
1306;SDS011;646;48.696;9.114;2022-08-21T06:23:50;4.40;;;4.10;;
1306;SDS011;646;48.696;9.114;2022-08-21T06:26:15;4.13;;;3.60;;
1306;SDS011;646;48.696;9.114;2022-08-21T06:28:41;3.97;;;3.73;;
1306;SDS011;646;48.696;9.114;2022-08-21T06:31:11;4.97;;;4.10;;
1306;SDS011;646;48.696;9.114;2022-08-21T06:33:44;3.87;;;3.60;;
1306;SDS011;646;48.696;9.114;2022-08-21T06:36:10;4.00;;;3.30;;
1306;SDS011;646;48.696;9.114;2022-08-21T06:38:36;4.73;;;4.33;;
1306;SDS011;646;48.696;9.114;2022-08-21T06:41:02;4.50;;;4.10;;
1306;SDS011;646;48.696;9.114;2022-08-21T06:43:28;3.97;;;3.67;;
1306;SDS011;646;48.696;9.114;2022-08-21T06:45:53;4.30;;;3.97;;
1306;SDS011;646;48.696;9.114;2022-08-21T06:48:19;4.27;;;3.90;;
1306;SDS011;646;48.696;9.114;2022-08-21T06:50:45;4.93;;;3.53;;
1306;SDS011;646;48.696;9.114;2022-08-21T06:53:12;3.83;;;3.57;;
1306;SDS011;646;48.696;9.114;2022-08-21T06:55:39;3.97;;;3.73;;
1306;SDS011;646;48.696;9.114;2022-08-21T06:58:06;4.57;;;4.20;;
1306;SDS011;646;48.696;9.114;2022-08-21T07:00:32;4.23;;;3.83;;
1306;SDS011;646;48.696;9.114;2022-08-21T07:02:59;5.40;;;4.60;;
1306;SDS011;646;48.696;9.114;2022-08-21T07:05:25;4.57;;;3.90;;
1306;SDS011;646;48.696;9.114;2022-08-21T07:07:52;3.53;;;3.23;;
1306;SDS011;646;48.696;9.114;2022-08-21T07:10:17;5.20;;;3.90;;
1306;SDS011;646;48.696;9.114;2022-08-21T07:12:43;4.57;;;4.17;;
1306;SDS011;646;48.696;9.114;2022-08-21T07:15:09;4.30;;;3.90;;
1306;SDS011;646;48.696;9.114;2022-08-21T07:17:35;5.17;;;4.20;;
1306;SDS011;646;48.696;9.114;2022-08-21T07:20:01;4.10;;;3.80;;
1306;SDS011;646;48.696;9.114;2022-08-21T07:22:28;4.30;;;3.90;;
1306;SDS011;646;48.696;9.114;2022-08-21T07:24:54;5.07;;;4.60;;
1306;SDS011;646;48.696;9.114;2022-08-21T07:27:19;4.40;;;4.00;;
1306;SDS011;646;48.696;9.114;2022-08-21T07:29:45;4.67;;;4.27;;
1306;SDS011;646;48.696;9.114;2022-08-21T07:32:10;4.30;;;4.00;;
1306;SDS011;646;48.696;9.114;2022-08-21T07:34:36;6.63;;;4.60;;
1306;SDS011;646;48.696;9.114;2022-08-21T07:37:01;5.00;;;4.53;;
1306;SDS011;646;48.696;9.114;2022-08-21T07:39:27;4.20;;;3.90;;
1306;SDS011;646;48.696;9.114;2022-08-21T07:41:53;5.67;;;4.60;;
1306;SDS011;646;48.696;9.114;2022-08-21T07:44:18;3.90;;;3.60;;
1306;SDS011;646;48.696;9.114;2022-08-21T07:46:44;4.57;;;4.17;;
1306;SDS011;646;48.696;9.114;2022-08-21T07:49:09;4.80;;;4.40;;
1306;SDS011;646;48.696;9.114;2022-08-21T07:51:35;5.23;;;4.73;;
1306;SDS011;646;48.696;9.114;2022-08-21T07:54:00;4.10;;;3.80;;
1306;SDS011;646;48.696;9.114;2022-08-21T07:56:27;5.33;;;4.20;;
1306;SDS011;646;48.696;9.114;2022-08-21T07:58:55;4.37;;;3.97;;
1306;SDS011;646;48.696;9.114;2022-08-21T08:01:22;4.57;;;4.17;;
1306;SDS011;646;48.696;9.114;2022-08-21T08:03:48;5.60;;;4.80;;
1306;SDS011;646;48.696;9.114;2022-08-21T08:06:13;5.07;;;4.10;;
1306;SDS011;646;48.696;9.114;2022-08-21T08:08:40;4.40;;;4.00;;
1306;SDS011;646;48.696;9.114;2022-08-21T08:11:06;5.03;;;4.20;;
1306;SDS011;646;48.696;9.114;2022-08-21T08:13:38;4.37;;;3.83;;
1306;SDS011;646;48.696;9.114;2022-08-21T08:16:08;5.40;;;4.90;;
1306;SDS011;646;48.696;9.114;2022-08-21T08:18:33;5.70;;;4.83;;
1306;SDS011;646;48.696;9.114;2022-08-21T08:20:59;6.30;;;4.63;;
1306;SDS011;646;48.696;9.114;2022-08-21T08:23:25;4.37;;;4.07;;
1306;SDS011;646;48.696;9.114;2022-08-21T08:25:51;4.93;;;4.53;;
1306;SDS011;646;48.696;9.114;2022-08-21T08:28:16;4.23;;;3.93;;
1306;SDS011;646;48.696;9.114;2022-08-21T08:30:42;5.00;;;4.60;;
1306;SDS011;646;48.696;9.114;2022-08-21T08:33:08;5.20;;;4.00;;
1306;SDS011;646;48.696;9.114;2022-08-21T08:35:33;6.37;;;4.70;;
1306;SDS011;646;48.696;9.114;2022-08-21T08:37:59;5.33;;;4.27;;
1306;SDS011;646;48.696;9.114;2022-08-21T08:42:53;4.77;;;4.33;;
1306;SDS011;646;48.696;9.114;2022-08-21T08:45:20;5.00;;;4.50;;
1306;SDS011;646;48.696;9.114;2022-08-21T08:47:52;6.37;;;4.60;;
1306;SDS011;646;48.696;9.114;2022-08-21T08:53:07;4.67;;;4.33;;
1306;SDS011;646;48.696;9.114;2022-08-21T08:55:50;5.27;;;4.80;;
1306;SDS011;646;48.696;9.114;2022-08-21T08:58:21;6.60;;;4.40;;
1306;SDS011;646;48.696;9.114;2022-08-21T09:00:50;4.97;;;4.47;;
1306;SDS011;646;48.696;9.114;2022-08-21T09:03:18;4.60;;;4.20;;
1306;SDS011;646;48.696;9.114;2022-08-21T09:08:28;4.20;;;3.80;;
1306;SDS011;646;48.696;9.114;2022-08-21T09:11:37;5.40;;;4.00;;
1306;SDS011;646;48.696;9.114;2022-08-21T09:14:58;4.53;;;4.10;;
1306;SDS011;646;48.696;9.114;2022-08-21T09:22:43;4.37;;;4.07;;
1306;SDS011;646;48.696;9.114;2022-08-21T09:25:32;3.80;;;3.40;;
1306;SDS011;646;48.696;9.114;2022-08-21T09:28:14;4.60;;;3.73;;
1306;SDS011;646;48.696;9.114;2022-08-21T09:30:40;4.30;;;3.90;;
1306;SDS011;646;48.696;9.114;2022-08-21T09:33:06;4.37;;;3.97;;
1306;SDS011;646;48.696;9.114;2022-08-21T09:35:32;4.83;;;4.43;;
1306;SDS011;646;48.696;9.114;2022-08-21T09:38:04;5.13;;;3.60;;
1306;SDS011;646;48.696;9.114;2022-08-21T09:45:34;3.80;;;3.50;;
1306;SDS011;646;48.696;9.114;2022-08-21T09:48:10;4.50;;;4.00;;
1306;SDS011;646;48.696;9.114;2022-08-21T09:50:37;4.93;;;3.93;;
1306;SDS011;646;48.696;9.114;2022-08-21T09:53:03;4.57;;;4.17;;
1306;SDS011;646;48.696;9.114;2022-08-21T09:55:49;3.83;;;3.57;;
1306;SDS011;646;48.696;9.114;2022-08-21T09:58:36;4.40;;;3.60;;
1306;SDS011;646;48.696;9.114;2022-08-21T10:01:04;6.03;;;3.60;;
1306;SDS011;646;48.696;9.114;2022-08-21T10:03:30;3.57;;;3.27;;
1306;SDS011;646;48.696;9.114;2022-08-21T10:05:57;5.13;;;4.17;;
1306;SDS011;646;48.696;9.114;2022-08-21T10:08:33;4.50;;;3.70;;
1306;SDS011;646;48.696;9.114;2022-08-21T10:13:40;5.13;;;4.20;;
1306;SDS011;646;48.696;9.114;2022-08-21T10:16:15;4.13;;;3.80;;
1306;SDS011;646;48.696;9.114;2022-08-21T10:18:56;9.03;;;3.93;;
1306;SDS011;646;48.696;9.114;2022-08-21T10:21:43;3.80;;;3.50;;
1306;SDS011;646;48.696;9.114;2022-08-21T10:24:51;4.17;;;3.77;;
1306;SDS011;646;48.696;9.114;2022-08-21T10:27:42;3.80;;;3.50;;
1306;SDS011;646;48.696;9.114;2022-08-21T10:33:24;5.23;;;3.63;;
1306;SDS011;646;48.696;9.114;2022-08-21T10:36:02;3.80;;;3.50;;
1306;SDS011;646;48.696;9.114;2022-08-21T10:44:04;4.27;;;3.87;;
1306;SDS011;646;48.696;9.114;2022-08-21T10:49:20;3.57;;;3.27;;
1306;SDS011;646;48.696;9.114;2022-08-21T10:55:06;4.00;;;3.60;;
1306;SDS011;646;48.696;9.114;2022-08-21T10:57:56;3.50;;;3.20;;
1306;SDS011;646;48.696;9.114;2022-08-21T11:00:40;3.70;;;2.97;;
1306;SDS011;646;48.696;9.114;2022-08-21T11:06:09;4.37;;;3.97;;
1306;SDS011;646;48.696;9.114;2022-08-21T11:08:41;3.87;;;3.57;;
1306;SDS011;646;48.696;9.114;2022-08-21T11:11:19;4.50;;;4.10;;
1306;SDS011;646;48.696;9.114;2022-08-21T11:13:49;4.17;;;3.77;;
1306;SDS011;646;48.696;9.114;2022-08-21T11:19:08;3.90;;;3.50;;
1306;SDS011;646;48.696;9.114;2022-08-21T11:30:20;4.10;;;3.80;;
1306;SDS011;646;48.696;9.114;2022-08-21T11:51:44;4.20;;;3.70;;
1306;SDS011;646;48.696;9.114;2022-08-21T11:56:54;6.27;;;4.30;;
1306;SDS011;646;48.696;9.114;2022-08-21T11:59:32;3.63;;;3.33;;
1306;SDS011;646;48.696;9.114;2022-08-21T12:02:20;4.20;;;3.80;;
1306;SDS011;646;48.696;9.114;2022-08-21T12:04:51;4.13;;;3.73;;
1306;SDS011;646;48.696;9.114;2022-08-21T12:07:30;4.53;;;3.93;;
1306;SDS011;646;48.696;9.114;2022-08-21T12:09:57;4.30;;;4.00;;
1306;SDS011;646;48.696;9.114;2022-08-21T12:12:25;4.30;;;3.90;;
1306;SDS011;646;48.696;9.114;2022-08-21T12:15:07;6.23;;;4.30;;
1306;SDS011;646;48.696;9.114;2022-08-21T12:17:50;4.87;;;4.47;;
1306;SDS011;646;48.696;9.114;2022-08-21T12:25:39;4.47;;;4.07;;
1306;SDS011;646;48.696;9.114;2022-08-21T12:28:08;5.37;;;4.37;;
1306;SDS011;646;48.696;9.114;2022-08-21T12:30:38;5.70;;;3.97;;
1306;SDS011;646;48.696;9.114;2022-08-21T12:38:56;4.50;;;4.10;;
1306;SDS011;646;48.696;9.114;2022-08-21T12:41:29;5.60;;;3.80;;
1306;SDS011;646;48.696;9.114;2022-08-21T12:46:37;4.37;;;3.97;;
1306;SDS011;646;48.696;9.114;2022-08-21T12:49:14;4.33;;;3.60;;
1306;SDS011;646;48.696;9.114;2022-08-21T12:54:31;4.20;;;3.80;;
1306;SDS011;646;48.696;9.114;2022-08-21T12:57:03;3.90;;;3.60;;
1306;SDS011;646;48.696;9.114;2022-08-21T12:59:30;3.80;;;3.50;;
1306;SDS011;646;48.696;9.114;2022-08-21T13:01:57;3.73;;;3.33;;
1306;SDS011;646;48.696;9.114;2022-08-21T13:04:34;3.70;;;3.40;;
1306;SDS011;646;48.696;9.114;2022-08-21T13:07:05;4.80;;;3.63;;
1306;SDS011;646;48.696;9.114;2022-08-21T13:09:56;4.50;;;3.90;;
1306;SDS011;646;48.696;9.114;2022-08-21T13:12:27;4.57;;;3.60;;
1306;SDS011;646;48.696;9.114;2022-08-21T13:14:56;3.80;;;3.50;;
1306;SDS011;646;48.696;9.114;2022-08-21T13:17:25;4.20;;;3.80;;
1306;SDS011;646;48.696;9.114;2022-08-21T13:19:59;4.97;;;4.57;;
1306;SDS011;646;48.696;9.114;2022-08-21T13:22:27;5.47;;;4.50;;
1306;SDS011;646;48.696;9.114;2022-08-21T13:24:53;4.67;;;4.30;;
1306;SDS011;646;48.696;9.114;2022-08-21T13:27:26;4.47;;;4.07;;
1306;SDS011;646;48.696;9.114;2022-08-21T13:30:28;4.70;;;4.40;;
1306;SDS011;646;48.696;9.114;2022-08-21T13:32:48;4.07;;;3.60;;
1306;SDS011;646;48.696;9.114;2022-08-21T13:35:22;5.77;;;4.47;;
1306;SDS011;646;48.696;9.114;2022-08-21T13:38:09;4.70;;;3.77;;
1306;SDS011;646;48.696;9.114;2022-08-21T13:40:40;5.33;;;4.17;;
1306;SDS011;646;48.696;9.114;2022-08-21T13:43:13;4.57;;;4.17;;
1306;SDS011;646;48.696;9.114;2022-08-21T13:45:43;5.03;;;4.50;;
1306;SDS011;646;48.696;9.114;2022-08-21T13:48:12;4.10;;;3.80;;
1306;SDS011;646;48.696;9.114;2022-08-21T13:50:38;4.10;;;3.70;;
1306;SDS011;646;48.696;9.114;2022-08-21T13:53:06;4.40;;;4.10;;
1306;SDS011;646;48.696;9.114;2022-08-21T13:55:43;4.53;;;4.13;;
1306;SDS011;646;48.696;9.114;2022-08-21T13:58:09;4.23;;;3.93;;
1306;SDS011;646;48.696;9.114;2022-08-21T14:00:46;4.17;;;3.80;;
1306;SDS011;646;48.696;9.114;2022-08-21T14:03:27;5.53;;;3.97;;
1306;SDS011;646;48.696;9.114;2022-08-21T14:06:14;4.23;;;3.83;;
1306;SDS011;646;48.696;9.114;2022-08-21T14:08:53;4.50;;;3.93;;
1306;SDS011;646;48.696;9.114;2022-08-21T14:11:22;5.93;;;3.23;;
1306;SDS011;646;48.696;9.114;2022-08-21T14:16:21;3.87;;;3.57;;
1306;SDS011;646;48.696;9.114;2022-08-21T14:21:27;3.97;;;3.40;;
1306;SDS011;646;48.696;9.114;2022-08-21T14:29:24;4.57;;;4.17;;
1306;SDS011;646;48.696;9.114;2022-08-21T14:31:53;4.03;;;3.73;;
1306;SDS011;646;48.696;9.114;2022-08-21T14:34:25;3.60;;;3.33;;
1306;SDS011;646;48.696;9.114;2022-08-21T14:36:54;3.83;;;3.50;;
1306;SDS011;646;48.696;9.114;2022-08-21T14:39:20;4.37;;;3.97;;
1306;SDS011;646;48.696;9.114;2022-08-21T14:41:45;4.20;;;3.90;;
1306;SDS011;646;48.696;9.114;2022-08-21T14:44:13;3.73;;;3.53;;
1306;SDS011;646;48.696;9.114;2022-08-21T14:46:39;5.10;;;4.43;;
1306;SDS011;646;48.696;9.114;2022-08-21T14:49:05;3.63;;;3.43;;
1306;SDS011;646;48.696;9.114;2022-08-21T14:51:30;3.87;;;3.57;;
1306;SDS011;646;48.696;9.114;2022-08-21T14:53:56;3.57;;;3.37;;
1306;SDS011;646;48.696;9.114;2022-08-21T14:56:22;4.67;;;4.07;;
1306;SDS011;646;48.696;9.114;2022-08-21T14:58:48;4.40;;;4.00;;
1306;SDS011;646;48.696;9.114;2022-08-21T15:01:16;4.00;;;3.70;;
1306;SDS011;646;48.696;9.114;2022-08-21T15:03:44;5.47;;;4.10;;
1306;SDS011;646;48.696;9.114;2022-08-21T15:06:11;4.37;;;3.97;;
1306;SDS011;646;48.696;9.114;2022-08-21T15:08:37;3.70;;;3.40;;
1306;SDS011;646;48.696;9.114;2022-08-21T15:11:02;4.67;;;4.20;;
1306;SDS011;646;48.696;9.114;2022-08-21T15:13:29;4.40;;;3.83;;
1306;SDS011;646;48.696;9.114;2022-08-21T15:15:55;4.40;;;4.00;;
1306;SDS011;646;48.696;9.114;2022-08-21T15:18:22;4.20;;;3.20;;
1306;SDS011;646;48.696;9.114;2022-08-21T15:20:50;4.93;;;4.07;;
1306;SDS011;646;48.696;9.114;2022-08-21T15:23:16;3.80;;;3.50;;
1306;SDS011;646;48.696;9.114;2022-08-21T15:25:42;5.43;;;4.60;;
1306;SDS011;646;48.696;9.114;2022-08-21T15:28:08;3.90;;;3.60;;
1306;SDS011;646;48.696;9.114;2022-08-21T15:30:34;4.70;;;4.00;;
1306;SDS011;646;48.696;9.114;2022-08-21T15:33:01;4.03;;;3.73;;
1306;SDS011;646;48.696;9.114;2022-08-21T15:35:26;5.47;;;4.20;;
1306;SDS011;646;48.696;9.114;2022-08-21T15:37:52;3.53;;;3.23;;
1306;SDS011;646;48.696;9.114;2022-08-21T15:40:17;4.53;;;4.13;;
1306;SDS011;646;48.696;9.114;2022-08-21T15:42:43;4.20;;;3.80;;
1306;SDS011;646;48.696;9.114;2022-08-21T15:45:10;5.37;;;3.90;;
1306;SDS011;646;48.696;9.114;2022-08-21T15:47:38;4.73;;;3.93;;
1306;SDS011;646;48.696;9.114;2022-08-21T15:50:07;4.27;;;3.87;;
1306;SDS011;646;48.696;9.114;2022-08-21T15:52:34;3.93;;;3.57;;
1306;SDS011;646;48.696;9.114;2022-08-21T15:55:00;4.20;;;3.80;;
1306;SDS011;646;48.696;9.114;2022-08-21T15:57:26;4.57;;;4.00;;
1306;SDS011;646;48.696;9.114;2022-08-21T15:59:59;5.90;;;4.50;;
1306;SDS011;646;48.696;9.114;2022-08-21T16:02:36;5.30;;;4.57;;
1306;SDS011;646;48.696;9.114;2022-08-21T16:05:02;4.70;;;4.30;;
1306;SDS011;646;48.696;9.114;2022-08-21T16:07:28;3.97;;;3.67;;
1306;SDS011;646;48.696;9.114;2022-08-21T16:09:53;4.57;;;4.17;;
1306;SDS011;646;48.696;9.114;2022-08-21T16:12:20;3.90;;;3.60;;
1306;SDS011;646;48.696;9.114;2022-08-21T16:14:56;4.37;;;3.90;;
1306;SDS011;646;48.696;9.114;2022-08-21T16:17:25;4.93;;;4.57;;
1306;SDS011;646;48.696;9.114;2022-08-21T16:19:56;4.30;;;3.90;;
1306;SDS011;646;48.696;9.114;2022-08-21T16:22:24;4.73;;;4.13;;
1306;SDS011;646;48.696;9.114;2022-08-21T16:24:49;5.63;;;4.53;;
1306;SDS011;646;48.696;9.114;2022-08-21T16:27:15;4.60;;;4.20;;
1306;SDS011;646;48.696;9.114;2022-08-21T16:29:42;4.27;;;3.93;;
1306;SDS011;646;48.696;9.114;2022-08-21T16:32:09;4.20;;;3.90;;
1306;SDS011;646;48.696;9.114;2022-08-21T16:34:35;4.63;;;4.13;;
1306;SDS011;646;48.696;9.114;2022-08-21T16:37:02;4.03;;;3.73;;
1306;SDS011;646;48.696;9.114;2022-08-21T16:39:28;4.37;;;4.00;;
1306;SDS011;646;48.696;9.114;2022-08-21T16:41:53;4.77;;;4.37;;
1306;SDS011;646;48.696;9.114;2022-08-21T16:44:19;4.93;;;4.53;;
1306;SDS011;646;48.696;9.114;2022-08-21T16:46:46;5.07;;;4.67;;
1306;SDS011;646;48.696;9.114;2022-08-21T16:49:12;4.83;;;3.60;;
1306;SDS011;646;48.696;9.114;2022-08-21T16:51:38;4.63;;;4.23;;
1306;SDS011;646;48.696;9.114;2022-08-21T16:54:04;4.20;;;3.90;;
1306;SDS011;646;48.696;9.114;2022-08-21T16:56:29;4.67;;;3.97;;
1306;SDS011;646;48.696;9.114;2022-08-21T16:58:55;4.30;;;4.00;;
1306;SDS011;646;48.696;9.114;2022-08-21T17:01:23;4.83;;;4.00;;
1306;SDS011;646;48.696;9.114;2022-08-21T17:03:51;5.17;;;4.07;;
1306;SDS011;646;48.696;9.114;2022-08-21T17:06:17;3.60;;;3.30;;
1306;SDS011;646;48.696;9.114;2022-08-21T17:08:43;3.70;;;3.40;;
1306;SDS011;646;48.696;9.114;2022-08-21T17:11:23;4.43;;;4.03;;
1306;SDS011;646;48.696;9.114;2022-08-21T17:13:55;5.57;;;4.40;;
1306;SDS011;646;48.696;9.114;2022-08-21T17:16:22;6.37;;;3.83;;
1306;SDS011;646;48.696;9.114;2022-08-21T17:18:49;5.33;;;4.27;;
1306;SDS011;646;48.696;9.114;2022-08-21T17:21:14;3.57;;;3.37;;